KILN

Wilmington Airpark

Wilmington, Ohio, USA
METAR KILN 191454Z AUTO 05005KT 10SM CLR 23/21 A3000 RMK AO2 SLP150 T02330206 51006
Observed Flight Rules
Aug-19 @ 14:54 UTC (43 minutes ago) Visual Flight Rules
Wind Visibility Clouds
50° at 5 knots 10 miles
  • Clear skies
Temperatures Readings
Current 23°C / 73°F
Dewpoint 21°C / 70°F
Humidity 89%
Altimeter 30" Hg
Pressure 1015 hPa
Elevation 322
METAR KILN 191454Z AUTO 05005KT 10SM CLR 23/21 A3000 RMK AO2 SLP150 T02330206 51006
Observed Flight Rules
Aug-19 @ 14:54 UTC
(43 minutes ago)
VFR
Wind Visibility
50° at 5 knots 10 miles
Clouds
  • Clear skies
Temperature Dewpoint
23°C / 73°F 21°C / 70°F
Humidity Altimeter Pressure
89% 30" Hg 1015 hPa